sensor_id;sensor_type;location;lat;lon;timestamp;P1;durP1;ratioP1;P2;durP2;ratioP2
71236;SDS011;58984;51.960;5.582;2024-03-07T00:00:33;53.75;;;30.00;;
71236;SDS011;58984;51.960;5.582;2024-03-07T00:03:00;47.28;;;30.08;;
71236;SDS011;58984;51.960;5.582;2024-03-07T00:05:25;59.60;;;30.65;;
71236;SDS011;58984;51.960;5.582;2024-03-07T00:07:51;47.10;;;28.88;;
71236;SDS011;58984;51.960;5.582;2024-03-07T00:10:17;48.35;;;29.80;;
71236;SDS011;58984;51.960;5.582;2024-03-07T00:12:43;53.97;;;28.60;;
71236;SDS011;58984;51.960;5.582;2024-03-07T00:15:10;56.83;;;30.48;;
71236;SDS011;58984;51.960;5.582;2024-03-07T00:17:38;53.78;;;29.17;;
71236;SDS011;58984;51.960;5.582;2024-03-07T00:20:04;49.65;;;29.80;;
71236;SDS011;58984;51.960;5.582;2024-03-07T00:22:34;50.67;;;28.30;;
71236;SDS011;58984;51.960;5.582;2024-03-07T00:25:00;54.15;;;30.35;;
71236;SDS011;58984;51.960;5.582;2024-03-07T00:27:26;50.95;;;31.38;;
71236;SDS011;58984;51.960;5.582;2024-03-07T00:29:52;57.33;;;30.40;;
71236;SDS011;58984;51.960;5.582;2024-03-07T00:32:19;48.53;;;29.70;;
71236;SDS011;58984;51.960;5.582;2024-03-07T00:34:45;56.83;;;31.17;;
71236;SDS011;58984;51.960;5.582;2024-03-07T00:37:11;49.08;;;28.92;;
71236;SDS011;58984;51.960;5.582;2024-03-07T00:39:38;53.03;;;30.30;;
71236;SDS011;58984;51.960;5.582;2024-03-07T00:42:03;52.63;;;30.38;;
71236;SDS011;58984;51.960;5.582;2024-03-07T00:44:29;51.90;;;29.88;;
71236;SDS011;58984;51.960;5.582;2024-03-07T00:46:55;53.47;;;31.02;;
71236;SDS011;58984;51.960;5.582;2024-03-07T00:49:21;55.58;;;30.98;;
71236;SDS011;58984;51.960;5.582;2024-03-07T00:51:48;50.42;;;29.85;;
71236;SDS011;58984;51.960;5.582;2024-03-07T00:54:13;57.53;;;31.88;;
71236;SDS011;58984;51.960;5.582;2024-03-07T00:56:39;55.17;;;30.25;;
71236;SDS011;58984;51.960;5.582;2024-03-07T00:59:05;50.60;;;30.77;;
71236;SDS011;58984;51.960;5.582;2024-03-07T01:01:31;57.75;;;31.42;;
71236;SDS011;58984;51.960;5.582;2024-03-07T01:03:59;55.08;;;31.42;;
71236;SDS011;58984;51.960;5.582;2024-03-07T01:06:27;53.15;;;31.13;;
71236;SDS011;58984;51.960;5.582;2024-03-07T01:08:53;55.28;;;31.48;;
71236;SDS011;58984;51.960;5.582;2024-03-07T01:11:19;55.53;;;32.10;;
71236;SDS011;58984;51.960;5.582;2024-03-07T01:13:45;52.30;;;30.83;;
71236;SDS011;58984;51.960;5.582;2024-03-07T01:16:10;56.78;;;29.88;;
71236;SDS011;58984;51.960;5.582;2024-03-07T01:18:37;53.22;;;31.67;;
71236;SDS011;58984;51.960;5.582;2024-03-07T01:21:03;55.88;;;31.40;;
71236;SDS011;58984;51.960;5.582;2024-03-07T01:23:30;55.63;;;31.38;;
71236;SDS011;58984;51.960;5.582;2024-03-07T01:25:59;60.50;;;31.42;;
71236;SDS011;58984;51.960;5.582;2024-03-07T01:28:25;59.38;;;31.95;;
71236;SDS011;58984;51.960;5.582;2024-03-07T01:30:54;61.75;;;31.70;;
71236;SDS011;58984;51.960;5.582;2024-03-07T01:33:21;53.83;;;30.55;;
71236;SDS011;58984;51.960;5.582;2024-03-07T01:35:47;54.55;;;31.35;;
71236;SDS011;58984;51.960;5.582;2024-03-07T01:38:13;51.83;;;31.85;;
71236;SDS011;58984;51.960;5.582;2024-03-07T01:40:42;54.38;;;32.75;;
71236;SDS011;58984;51.960;5.582;2024-03-07T01:43:09;51.25;;;31.23;;
71236;SDS011;58984;51.960;5.582;2024-03-07T01:45:38;50.42;;;29.95;;
71236;SDS011;58984;51.960;5.582;2024-03-07T01:48:10;52.80;;;30.92;;
71236;SDS011;58984;51.960;5.582;2024-03-07T01:50:39;55.00;;;31.45;;
71236;SDS011;58984;51.960;5.582;2024-03-07T01:53:05;53.65;;;31.10;;
71236;SDS011;58984;51.960;5.582;2024-03-07T01:55:33;60.08;;;32.00;;
71236;SDS011;58984;51.960;5.582;2024-03-07T01:57:59;52.25;;;31.63;;
71236;SDS011;58984;51.960;5.582;2024-03-07T02:00:27;57.33;;;30.55;;
71236;SDS011;58984;51.960;5.582;2024-03-07T02:02:53;55.35;;;31.63;;
71236;SDS011;58984;51.960;5.582;2024-03-07T02:05:19;54.05;;;30.00;;
71236;SDS011;58984;51.960;5.582;2024-03-07T02:07:46;57.53;;;32.40;;
71236;SDS011;58984;51.960;5.582;2024-03-07T02:10:12;52.58;;;31.20;;
71236;SDS011;58984;51.960;5.582;2024-03-07T02:12:38;58.30;;;32.88;;
71236;SDS011;58984;51.960;5.582;2024-03-07T02:15:04;61.80;;;32.60;;
71236;SDS011;58984;51.960;5.582;2024-03-07T02:17:30;54.25;;;32.42;;
71236;SDS011;58984;51.960;5.582;2024-03-07T02:19:57;59.13;;;33.45;;
71236;SDS011;58984;51.960;5.582;2024-03-07T02:22:22;55.13;;;32.47;;
71236;SDS011;58984;51.960;5.582;2024-03-07T02:24:49;54.67;;;32.03;;
71236;SDS011;58984;51.960;5.582;2024-03-07T02:27:15;46.42;;;30.58;;
71236;SDS011;58984;51.960;5.582;2024-03-07T02:29:41;54.13;;;31.35;;
71236;SDS011;58984;51.960;5.582;2024-03-07T02:32:07;58.00;;;33.22;;
71236;SDS011;58984;51.960;5.582;2024-03-07T02:34:32;59.30;;;32.00;;
71236;SDS011;58984;51.960;5.582;2024-03-07T02:36:59;55.28;;;31.92;;
71236;SDS011;58984;51.960;5.582;2024-03-07T02:39:27;59.67;;;33.47;;
71236;SDS011;58984;51.960;5.582;2024-03-07T02:41:55;61.83;;;33.53;;
71236;SDS011;58984;51.960;5.582;2024-03-07T02:44:21;57.63;;;32.38;;
71236;SDS011;58984;51.960;5.582;2024-03-07T02:46:46;61.58;;;33.05;;
71236;SDS011;58984;51.960;5.582;2024-03-07T02:49:13;58.05;;;31.55;;
71236;SDS011;58984;51.960;5.582;2024-03-07T02:51:42;55.40;;;32.33;;
71236;SDS011;58984;51.960;5.582;2024-03-07T02:54:08;60.90;;;31.77;;
71236;SDS011;58984;51.960;5.582;2024-03-07T02:56:33;58.28;;;33.08;;
71236;SDS011;58984;51.960;5.582;2024-03-07T02:59:00;57.88;;;32.53;;
71236;SDS011;58984;51.960;5.582;2024-03-07T03:01:26;54.38;;;32.35;;
71236;SDS011;58984;51.960;5.582;2024-03-07T03:03:51;56.00;;;34.00;;
71236;SDS011;58984;51.960;5.582;2024-03-07T03:06:17;61.05;;;33.90;;
71236;SDS011;58984;51.960;5.582;2024-03-07T03:08:45;53.38;;;32.13;;
71236;SDS011;58984;51.960;5.582;2024-03-07T03:11:11;60.25;;;33.38;;
71236;SDS011;58984;51.960;5.582;2024-03-07T03:13:39;51.30;;;31.23;;
71236;SDS011;58984;51.960;5.582;2024-03-07T03:16:11;51.95;;;32.30;;
71236;SDS011;58984;51.960;5.582;2024-03-07T03:18:37;55.88;;;32.13;;
71236;SDS011;58984;51.960;5.582;2024-03-07T03:21:03;55.65;;;32.40;;
71236;SDS011;58984;51.960;5.582;2024-03-07T03:23:29;55.05;;;33.90;;
71236;SDS011;58984;51.960;5.582;2024-03-07T03:25:55;56.83;;;33.22;;
71236;SDS011;58984;51.960;5.582;2024-03-07T03:28:21;59.65;;;32.40;;
71236;SDS011;58984;51.960;5.582;2024-03-07T03:30:48;62.85;;;33.42;;
71236;SDS011;58984;51.960;5.582;2024-03-07T03:33:14;57.28;;;32.75;;
71236;SDS011;58984;51.960;5.582;2024-03-07T03:35:40;61.15;;;32.40;;
71236;SDS011;58984;51.960;5.582;2024-03-07T03:38:06;55.42;;;33.35;;
71236;SDS011;58984;51.960;5.582;2024-03-07T03:40:33;61.55;;;32.80;;
71236;SDS011;58984;51.960;5.582;2024-03-07T03:42:59;53.30;;;32.22;;
71236;SDS011;58984;51.960;5.582;2024-03-07T03:45:25;63.08;;;33.13;;
71236;SDS011;58984;51.960;5.582;2024-03-07T03:47:54;58.45;;;33.28;;
71236;SDS011;58984;51.960;5.582;2024-03-07T03:50:20;59.50;;;33.20;;
71236;SDS011;58984;51.960;5.582;2024-03-07T03:52:49;59.67;;;33.45;;
71236;SDS011;58984;51.960;5.582;2024-03-07T03:55:17;57.58;;;33.90;;
71236;SDS011;58984;51.960;5.582;2024-03-07T03:57:44;60.75;;;36.10;;
71236;SDS011;58984;51.960;5.582;2024-03-07T04:00:12;63.15;;;33.95;;
71236;SDS011;58984;51.960;5.582;2024-03-07T04:02:39;63.75;;;34.70;;
71236;SDS011;58984;51.960;5.582;2024-03-07T04:05:09;51.78;;;31.98;;
71236;SDS011;58984;51.960;5.582;2024-03-07T04:07:37;58.47;;;32.92;;
71236;SDS011;58984;51.960;5.582;2024-03-07T04:10:03;62.40;;;33.47;;
71236;SDS011;58984;51.960;5.582;2024-03-07T04:12:35;65.88;;;34.90;;
71236;SDS011;58984;51.960;5.582;2024-03-07T04:15:03;64.30;;;33.25;;
71236;SDS011;58984;51.960;5.582;2024-03-07T04:17:32;63.75;;;34.63;;
71236;SDS011;58984;51.960;5.582;2024-03-07T04:19:59;57.72;;;33.05;;
71236;SDS011;58984;51.960;5.582;2024-03-07T04:22:25;56.72;;;34.42;;
71236;SDS011;58984;51.960;5.582;2024-03-07T04:24:51;55.17;;;33.13;;
71236;SDS011;58984;51.960;5.582;2024-03-07T04:27:20;61.75;;;34.72;;
71236;SDS011;58984;51.960;5.582;2024-03-07T04:29:47;56.70;;;32.83;;
71236;SDS011;58984;51.960;5.582;2024-03-07T04:32:13;55.00;;;33.20;;
71236;SDS011;58984;51.960;5.582;2024-03-07T04:34:39;59.47;;;32.95;;
71236;SDS011;58984;51.960;5.582;2024-03-07T04:37:05;61.88;;;33.95;;
71236;SDS011;58984;51.960;5.582;2024-03-07T04:39:30;64.28;;;34.97;;
71236;SDS011;58984;51.960;5.582;2024-03-07T04:42:00;63.00;;;34.22;;
71236;SDS011;58984;51.960;5.582;2024-03-07T04:44:26;63.67;;;33.83;;
71236;SDS011;58984;51.960;5.582;2024-03-07T04:46:52;57.80;;;33.70;;
71236;SDS011;58984;51.960;5.582;2024-03-07T04:49:22;58.25;;;32.67;;
71236;SDS011;58984;51.960;5.582;2024-03-07T04:51:49;58.42;;;32.58;;
71236;SDS011;58984;51.960;5.582;2024-03-07T04:54:18;55.22;;;35.63;;
71236;SDS011;58984;51.960;5.582;2024-03-07T04:56:47;59.97;;;33.42;;
71236;SDS011;58984;51.960;5.582;2024-03-07T04:59:13;56.78;;;34.00;;
71236;SDS011;58984;51.960;5.582;2024-03-07T05:01:40;59.17;;;34.35;;
71236;SDS011;58984;51.960;5.582;2024-03-07T05:04:06;59.97;;;34.65;;
71236;SDS011;58984;51.960;5.582;2024-03-07T05:06:32;63.17;;;34.88;;
71236;SDS011;58984;51.960;5.582;2024-03-07T05:09:01;66.22;;;35.53;;
71236;SDS011;58984;51.960;5.582;2024-03-07T05:11:28;54.75;;;33.15;;
71236;SDS011;58984;51.960;5.582;2024-03-07T05:13:55;55.78;;;32.28;;
71236;SDS011;58984;51.960;5.582;2024-03-07T05:16:23;67.07;;;34.53;;
71236;SDS011;58984;51.960;5.582;2024-03-07T05:18:49;55.53;;;33.65;;
71236;SDS011;58984;51.960;5.582;2024-03-07T05:21:16;66.10;;;34.38;;
71236;SDS011;58984;51.960;5.582;2024-03-07T05:23:58;64.45;;;33.70;;
71236;SDS011;58984;51.960;5.582;2024-03-07T05:26:24;55.05;;;33.65;;
71236;SDS011;58984;51.960;5.582;2024-03-07T05:28:53;58.20;;;35.40;;
71236;SDS011;58984;51.960;5.582;2024-03-07T05:31:19;60.88;;;34.38;;
71236;SDS011;58984;51.960;5.582;2024-03-07T05:33:46;60.20;;;34.05;;
71236;SDS011;58984;51.960;5.582;2024-03-07T05:36:15;65.32;;;34.83;;
71236;SDS011;58984;51.960;5.582;2024-03-07T05:38:47;61.20;;;33.17;;
71236;SDS011;58984;51.960;5.582;2024-03-07T05:41:12;57.67;;;34.63;;
71236;SDS011;58984;51.960;5.582;2024-03-07T05:43:39;58.97;;;33.72;;
71236;SDS011;58984;51.960;5.582;2024-03-07T05:46:05;70.38;;;34.65;;
71236;SDS011;58984;51.960;5.582;2024-03-07T05:48:32;62.50;;;34.20;;
71236;SDS011;58984;51.960;5.582;2024-03-07T05:50:58;55.50;;;34.85;;
71236;SDS011;58984;51.960;5.582;2024-03-07T05:53:27;59.88;;;35.10;;
71236;SDS011;58984;51.960;5.582;2024-03-07T05:55:53;62.72;;;35.65;;
71236;SDS011;58984;51.960;5.582;2024-03-07T05:58:19;61.97;;;34.00;;
71236;SDS011;58984;51.960;5.582;2024-03-07T06:00:45;66.15;;;34.60;;
71236;SDS011;58984;51.960;5.582;2024-03-07T06:03:14;63.28;;;35.97;;
71236;SDS011;58984;51.960;5.582;2024-03-07T06:05:45;66.38;;;34.90;;
71236;SDS011;58984;51.960;5.582;2024-03-07T06:08:15;66.43;;;36.45;;
71236;SDS011;58984;51.960;5.582;2024-03-07T06:10:42;64.32;;;34.92;;
71236;SDS011;58984;51.960;5.582;2024-03-07T06:13:08;62.03;;;36.55;;
71236;SDS011;58984;51.960;5.582;2024-03-07T06:15:36;63.65;;;36.03;;
71236;SDS011;58984;51.960;5.582;2024-03-07T06:18:03;61.90;;;34.95;;
71236;SDS011;58984;51.960;5.582;2024-03-07T06:20:29;61.17;;;35.13;;
71236;SDS011;58984;51.960;5.582;2024-03-07T06:23:01;55.83;;;34.55;;
71236;SDS011;58984;51.960;5.582;2024-03-07T06:25:41;56.17;;;34.28;;
71236;SDS011;58984;51.960;5.582;2024-03-07T06:28:17;56.67;;;33.33;;
71236;SDS011;58984;51.960;5.582;2024-03-07T06:30:46;63.15;;;35.03;;
71236;SDS011;58984;51.960;5.582;2024-03-07T06:33:13;60.88;;;34.00;;
71236;SDS011;58984;51.960;5.582;2024-03-07T06:35:45;73.95;;;37.90;;
71236;SDS011;58984;51.960;5.582;2024-03-07T06:38:16;64.60;;;34.42;;
71236;SDS011;58984;51.960;5.582;2024-03-07T06:40:42;63.38;;;35.25;;
71236;SDS011;58984;51.960;5.582;2024-03-07T06:43:10;57.15;;;34.33;;
71236;SDS011;58984;51.960;5.582;2024-03-07T06:45:39;63.13;;;34.35;;
71236;SDS011;58984;51.960;5.582;2024-03-07T06:48:06;69.63;;;35.17;;
71236;SDS011;58984;51.960;5.582;2024-03-07T06:50:35;61.17;;;33.60;;
71236;SDS011;58984;51.960;5.582;2024-03-07T06:53:06;62.75;;;35.25;;
71236;SDS011;58984;51.960;5.582;2024-03-07T06:55:32;61.67;;;34.42;;
71236;SDS011;58984;51.960;5.582;2024-03-07T06:58:02;57.35;;;33.92;;
71236;SDS011;58984;51.960;5.582;2024-03-07T07:00:30;61.83;;;33.90;;
71236;SDS011;58984;51.960;5.582;2024-03-07T07:03:00;61.70;;;34.13;;
71236;SDS011;58984;51.960;5.582;2024-03-07T07:05:28;59.25;;;33.53;;
71236;SDS011;58984;51.960;5.582;2024-03-07T07:07:55;56.15;;;33.67;;
71236;SDS011;58984;51.960;5.582;2024-03-07T07:10:20;56.90;;;32.42;;
71236;SDS011;58984;51.960;5.582;2024-03-07T07:12:48;61.70;;;35.03;;
71236;SDS011;58984;51.960;5.582;2024-03-07T07:15:15;57.28;;;33.85;;
71236;SDS011;58984;51.960;5.582;2024-03-07T07:17:43;54.17;;;31.95;;
71236;SDS011;58984;51.960;5.582;2024-03-07T07:20:12;56.33;;;32.88;;
71236;SDS011;58984;51.960;5.582;2024-03-07T07:22:44;55.65;;;33.47;;
71236;SDS011;58984;51.960;5.582;2024-03-07T07:25:11;58.58;;;33.13;;
71236;SDS011;58984;51.960;5.582;2024-03-07T07:27:45;58.17;;;32.58;;
71236;SDS011;58984;51.960;5.582;2024-03-07T07:30:13;58.35;;;33.75;;
71236;SDS011;58984;51.960;5.582;2024-03-07T07:32:40;57.38;;;32.92;;
71236;SDS011;58984;51.960;5.582;2024-03-07T07:35:06;60.88;;;32.58;;
71236;SDS011;58984;51.960;5.582;2024-03-07T07:37:38;62.30;;;33.65;;
71236;SDS011;58984;51.960;5.582;2024-03-07T07:40:08;51.17;;;31.48;;
71236;SDS011;58984;51.960;5.582;2024-03-07T07:42:38;55.95;;;30.42;;
71236;SDS011;58984;51.960;5.582;2024-03-07T07:45:11;51.70;;;30.02;;
71236;SDS011;58984;51.960;5.582;2024-03-07T07:47:43;54.85;;;31.55;;
71236;SDS011;58984;51.960;5.582;2024-03-07T07:50:36;52.35;;;31.58;;
71236;SDS011;58984;51.960;5.582;2024-03-07T07:53:05;51.17;;;31.27;;
71236;SDS011;58984;51.960;5.582;2024-03-07T07:55:39;60.60;;;31.27;;
71236;SDS011;58984;51.960;5.582;2024-03-07T07:58:05;54.15;;;31.20;;
71236;SDS011;58984;51.960;5.582;2024-03-07T08:00:34;48.45;;;29.30;;
71236;SDS011;58984;51.960;5.582;2024-03-07T08:03:09;53.63;;;30.80;;
71236;SDS011;58984;51.960;5.582;2024-03-07T08:05:36;52.88;;;30.95;;
71236;SDS011;58984;51.960;5.582;2024-03-07T08:08:06;45.97;;;29.05;;
71236;SDS011;58984;51.960;5.582;2024-03-07T08:10:37;51.97;;;28.40;;
71236;SDS011;58984;51.960;5.582;2024-03-07T08:13:07;51.92;;;30.13;;
71236;SDS011;58984;51.960;5.582;2024-03-07T08:15:43;50.00;;;28.70;;
71236;SDS011;58984;51.960;5.582;2024-03-07T08:18:11;48.92;;;29.00;;
71236;SDS011;58984;51.960;5.582;2024-03-07T08:20:43;47.78;;;28.50;;
71236;SDS011;58984;51.960;5.582;2024-03-07T08:23:42;46.15;;;27.60;;
71236;SDS011;58984;51.960;5.582;2024-03-07T08:26:08;48.40;;;28.67;;
71236;SDS011;58984;51.960;5.582;2024-03-07T08:28:33;47.15;;;28.38;;
71236;SDS011;58984;51.960;5.582;2024-03-07T08:30:59;42.25;;;27.70;;
71236;SDS011;58984;51.960;5.582;2024-03-07T08:33:25;40.80;;;26.92;;
71236;SDS011;58984;51.960;5.582;2024-03-07T08:35:51;45.85;;;27.10;;
71236;SDS011;58984;51.960;5.582;2024-03-07T08:38:19;51.42;;;28.08;;
71236;SDS011;58984;51.960;5.582;2024-03-07T08:40:45;41.70;;;26.33;;
71236;SDS011;58984;51.960;5.582;2024-03-07T08:43:11;45.65;;;26.45;;
71236;SDS011;58984;51.960;5.582;2024-03-07T08:45:42;40.60;;;26.50;;
71236;SDS011;58984;51.960;5.582;2024-03-07T08:48:08;49.67;;;25.58;;
71236;SDS011;58984;51.960;5.582;2024-03-07T08:50:34;44.33;;;25.00;;
71236;SDS011;58984;51.960;5.582;2024-03-07T08:53:47;47.65;;;25.85;;
71236;SDS011;58984;51.960;5.582;2024-03-07T08:56:13;39.88;;;24.05;;
71236;SDS011;58984;51.960;5.582;2024-03-07T08:58:42;36.17;;;23.83;;
71236;SDS011;58984;51.960;5.582;2024-03-07T09:02:07;35.50;;;22.95;;
71236;SDS011;58984;51.960;5.582;2024-03-07T09:04:32;37.58;;;23.63;;
71236;SDS011;58984;51.960;5.582;2024-03-07T09:07:01;36.40;;;22.80;;
71236;SDS011;58984;51.960;5.582;2024-03-07T09:09:26;37.83;;;21.15;;
71236;SDS011;58984;51.960;5.582;2024-03-07T09:11:52;43.35;;;22.58;;
71236;SDS011;58984;51.960;5.582;2024-03-07T09:14:17;40.65;;;22.40;;
71236;SDS011;58984;51.960;5.582;2024-03-07T09:16:43;41.50;;;23.25;;
71236;SDS011;58984;51.960;5.582;2024-03-07T09:19:09;37.30;;;21.65;;
71236;SDS011;58984;51.960;5.582;2024-03-07T09:21:41;36.65;;;22.23;;
71236;SDS011;58984;51.960;5.582;2024-03-07T09:26:52;30.20;;;21.02;;
71236;SDS011;58984;51.960;5.582;2024-03-07T09:29:22;39.47;;;22.85;;
71236;SDS011;58984;51.960;5.582;2024-03-07T09:31:57;40.50;;;23.88;;
71236;SDS011;58984;51.960;5.582;2024-03-07T09:34:23;33.75;;;21.30;;
71236;SDS011;58984;51.960;5.582;2024-03-07T09:39:39;34.22;;;20.98;;
71236;SDS011;58984;51.960;5.582;2024-03-07T09:42:12;31.45;;;20.80;;
71236;SDS011;58984;51.960;5.582;2024-03-07T09:45:00;37.95;;;21.45;;
71236;SDS011;58984;51.960;5.582;2024-03-07T10:13:46;32.08;;;20.13;;
71236;SDS011;58984;51.960;5.582;2024-03-07T10:16:15;32.20;;;19.92;;
71236;SDS011;58984;51.960;5.582;2024-03-07T10:18:42;30.23;;;19.17;;
71236;SDS011;58984;51.960;5.582;2024-03-07T10:21:09;30.33;;;18.45;;
71236;SDS011;58984;51.960;5.582;2024-03-07T10:23:36;35.20;;;19.55;;
71236;SDS011;58984;51.960;5.582;2024-03-07T10:26:03;31.77;;;18.35;;
71236;SDS011;58984;51.960;5.582;2024-03-07T10:28:29;30.23;;;17.45;;
71236;SDS011;58984;51.960;5.582;2024-03-07T10:30:56;29.00;;;17.92;;
71236;SDS011;58984;51.960;5.582;2024-03-07T10:33:25;33.72;;;18.60;;
71236;SDS011;58984;51.960;5.582;2024-03-07T10:35:52;32.42;;;18.90;;
71236;SDS011;58984;51.960;5.582;2024-03-07T10:38:18;34.65;;;18.73;;
71236;SDS011;58984;51.960;5.582;2024-03-07T10:40:45;30.45;;;18.08;;
71236;SDS011;58984;51.960;5.582;2024-03-07T10:43:13;30.90;;;18.45;;
71236;SDS011;58984;51.960;5.582;2024-03-07T10:45:44;28.38;;;17.42;;
71236;SDS011;58984;51.960;5.582;2024-03-07T10:48:11;31.05;;;19.15;;
71236;SDS011;58984;51.960;5.582;2024-03-07T10:59:17;24.55;;;17.83;;
71236;SDS011;58984;51.960;5.582;2024-03-07T11:01:53;28.83;;;17.50;;
71236;SDS011;58984;51.960;5.582;2024-03-07T11:04:22;26.30;;;16.95;;
71236;SDS011;58984;51.960;5.582;2024-03-07T11:06:49;27.13;;;16.52;;
71236;SDS011;58984;51.960;5.582;2024-03-07T11:09:14;30.98;;;18.13;;
71236;SDS011;58984;51.960;5.582;2024-03-07T11:11:48;29.92;;;17.50;;
71236;SDS011;58984;51.960;5.582;2024-03-07T11:14:13;32.92;;;18.13;;
71236;SDS011;58984;51.960;5.582;2024-03-07T11:16:41;26.50;;;17.58;;
71236;SDS011;58984;51.960;5.582;2024-03-07T11:19:27;29.30;;;18.27;;
71236;SDS011;58984;51.960;5.582;2024-03-07T11:21:55;29.92;;;17.08;;
71236;SDS011;58984;51.960;5.582;2024-03-07T11:24:30;26.92;;;16.55;;
71236;SDS011;58984;51.960;5.582;2024-03-07T11:27:03;29.40;;;17.17;;
71236;SDS011;58984;51.960;5.582;2024-03-07T11:32:07;27.48;;;16.70;;
71236;SDS011;58984;51.960;5.582;2024-03-07T11:34:38;28.70;;;17.58;;
71236;SDS011;58984;51.960;5.582;2024-03-07T11:37:06;33.67;;;18.10;;
71236;SDS011;58984;51.960;5.582;2024-03-07T11:39:42;30.83;;;17.10;;
71236;SDS011;58984;51.960;5.582;2024-03-07T11:42:29;29.42;;;17.55;;
71236;SDS011;58984;51.960;5.582;2024-03-07T11:45:00;31.15;;;17.80;;
71236;SDS011;58984;51.960;5.582;2024-03-07T11:47:36;28.58;;;17.35;;
71236;SDS011;58984;51.960;5.582;2024-03-07T11:50:06;26.75;;;17.42;;
71236;SDS011;58984;51.960;5.582;2024-03-07T11:52:36;32.97;;;17.67;;
71236;SDS011;58984;51.960;5.582;2024-03-07T11:55:07;31.33;;;16.95;;
71236;SDS011;58984;51.960;5.582;2024-03-07T11:57:33;23.35;;;15.68;;
71236;SDS011;58984;51.960;5.582;2024-03-07T11:59:59;27.08;;;16.58;;
71236;SDS011;58984;51.960;5.582;2024-03-07T12:02:39;31.50;;;17.42;;
71236;SDS011;58984;51.960;5.582;2024-03-07T12:05:05;27.27;;;15.88;;
71236;SDS011;58984;51.960;5.582;2024-03-07T12:07:31;31.35;;;16.58;;
71236;SDS011;58984;51.960;5.582;2024-03-07T12:09:58;30.83;;;16.45;;
71236;SDS011;58984;51.960;5.582;2024-03-07T12:12:28;30.10;;;16.85;;
71236;SDS011;58984;51.960;5.582;2024-03-07T12:14:54;28.77;;;16.77;;
71236;SDS011;58984;51.960;5.582;2024-03-07T12:17:20;25.90;;;16.17;;
71236;SDS011;58984;51.960;5.582;2024-03-07T12:19:46;27.23;;;15.95;;
71236;SDS011;58984;51.960;5.582;2024-03-07T12:22:12;31.38;;;15.75;;
71236;SDS011;58984;51.960;5.582;2024-03-07T12:24:39;28.00;;;16.00;;
71236;SDS011;58984;51.960;5.582;2024-03-07T12:27:08;29.17;;;15.52;;
71236;SDS011;58984;51.960;5.582;2024-03-07T12:29:38;25.52;;;15.27;;
71236;SDS011;58984;51.960;5.582;2024-03-07T12:32:05;27.35;;;15.65;;
71236;SDS011;58984;51.960;5.582;2024-03-07T12:34:39;30.02;;;18.15;;
71236;SDS011;58984;51.960;5.582;2024-03-07T12:37:10;30.35;;;17.55;;
71236;SDS011;58984;51.960;5.582;2024-03-07T12:39:40;34.15;;;17.33;;
71236;SDS011;58984;51.960;5.582;2024-03-07T12:42:13;28.92;;;16.60;;
71236;SDS011;58984;51.960;5.582;2024-03-07T12:44:42;31.58;;;17.73;;
71236;SDS011;58984;51.960;5.582;2024-03-07T12:47:10;30.92;;;16.50;;
71236;SDS011;58984;51.960;5.582;2024-03-07T12:49:35;26.27;;;15.70;;
71236;SDS011;58984;51.960;5.582;2024-03-07T12:52:01;24.75;;;16.15;;
71236;SDS011;58984;51.960;5.582;2024-03-07T12:54:27;23.23;;;14.95;;
71236;SDS011;58984;51.960;5.582;2024-03-07T12:56:54;25.30;;;14.82;;
71236;SDS011;58984;51.960;5.582;2024-03-07T12:59:19;28.45;;;15.13;;
71236;SDS011;58984;51.960;5.582;2024-03-07T13:01:48;24.30;;;14.05;;
71236;SDS011;58984;51.960;5.582;2024-03-07T13:04:15;24.10;;;13.38;;
71236;SDS011;58984;51.960;5.582;2024-03-07T13:06:41;20.48;;;12.43;;
71236;SDS011;58984;51.960;5.582;2024-03-07T13:09:12;21.87;;;13.30;;
71236;SDS011;58984;51.960;5.582;2024-03-07T13:11:38;29.45;;;14.52;;
71236;SDS011;58984;51.960;5.582;2024-03-07T13:14:11;73.53;;;22.48;;
71236;SDS011;58984;51.960;5.582;2024-03-07T13:16:37;85.97;;;23.75;;
71236;SDS011;58984;51.960;5.582;2024-03-07T13:19:03;73.75;;;22.50;;
71236;SDS011;58984;51.960;5.582;2024-03-07T13:21:30;68.32;;;21.38;;
71236;SDS011;58984;51.960;5.582;2024-03-07T13:23:56;48.35;;;17.85;;
71236;SDS011;58984;51.960;5.582;2024-03-07T13:26:23;40.67;;;16.65;;
71236;SDS011;58984;51.960;5.582;2024-03-07T13:28:51;33.03;;;14.30;;
71236;SDS011;58984;51.960;5.582;2024-03-07T13:31:18;27.13;;;13.98;;
71236;SDS011;58984;51.960;5.582;2024-03-07T13:33:44;29.27;;;14.32;;
71236;SDS011;58984;51.960;5.582;2024-03-07T13:36:11;29.48;;;14.32;;
71236;SDS011;58984;51.960;5.582;2024-03-07T13:38:39;25.33;;;14.00;;
71236;SDS011;58984;51.960;5.582;2024-03-07T13:41:05;31.95;;;14.05;;
71236;SDS011;58984;51.960;5.582;2024-03-07T13:43:31;25.38;;;13.63;;
71236;SDS011;58984;51.960;5.582;2024-03-07T13:46:00;24.27;;;13.80;;
71236;SDS011;58984;51.960;5.582;2024-03-07T13:48:25;25.83;;;13.93;;
71236;SDS011;58984;51.960;5.582;2024-03-07T13:50:51;24.75;;;14.20;;
71236;SDS011;58984;51.960;5.582;2024-03-07T13:53:19;22.80;;;12.82;;
71236;SDS011;58984;51.960;5.582;2024-03-07T14:10:05;22.73;;;14.63;;
71236;SDS011;58984;51.960;5.582;2024-03-07T14:32:13;23.15;;;14.60;;
71236;SDS011;58984;51.960;5.582;2024-03-07T14:40:49;25.90;;;15.10;;
71236;SDS011;58984;51.960;5.582;2024-03-07T14:43:16;22.27;;;14.25;;
71236;SDS011;58984;51.960;5.582;2024-03-07T14:45:44;25.15;;;16.25;;
71236;SDS011;58984;51.960;5.582;2024-03-07T14:48:11;22.88;;;14.85;;
71236;SDS011;58984;51.960;5.582;2024-03-07T14:50:42;22.33;;;14.70;;
71236;SDS011;58984;51.960;5.582;2024-03-07T14:53:13;26.08;;;14.27;;
71236;SDS011;58984;51.960;5.582;2024-03-07T14:55:42;23.63;;;14.75;;
71236;SDS011;58984;51.960;5.582;2024-03-07T14:58:08;24.80;;;14.68;;
71236;SDS011;58984;51.960;5.582;2024-03-07T15:00:36;24.17;;;15.10;;
71236;SDS011;58984;51.960;5.582;2024-03-07T15:03:15;20.17;;;14.30;;
71236;SDS011;58984;51.960;5.582;2024-03-07T15:05:44;19.83;;;13.98;;
71236;SDS011;58984;51.960;5.582;2024-03-07T15:08:11;21.73;;;13.07;;
71236;SDS011;58984;51.960;5.582;2024-03-07T15:10:43;21.98;;;13.57;;
71236;SDS011;58984;51.960;5.582;2024-03-07T15:13:12;21.90;;;14.27;;
71236;SDS011;58984;51.960;5.582;2024-03-07T15:15:38;21.65;;;14.40;;
71236;SDS011;58984;51.960;5.582;2024-03-07T15:18:05;19.52;;;14.27;;
71236;SDS011;58984;51.960;5.582;2024-03-07T15:20:31;21.38;;;13.63;;
71236;SDS011;58984;51.960;5.582;2024-03-07T15:22:57;21.50;;;13.73;;
71236;SDS011;58984;51.960;5.582;2024-03-07T15:25:28;23.48;;;14.07;;
71236;SDS011;58984;51.960;5.582;2024-03-07T15:27:55;19.27;;;13.60;;
71236;SDS011;58984;51.960;5.582;2024-03-07T15:30:23;19.80;;;13.32;;
71236;SDS011;58984;51.960;5.582;2024-03-07T15:32:50;23.92;;;15.43;;
71236;SDS011;58984;51.960;5.582;2024-03-07T15:35:16;23.15;;;14.10;;
71236;SDS011;58984;51.960;5.582;2024-03-07T15:37:46;18.23;;;13.43;;
71236;SDS011;58984;51.960;5.582;2024-03-07T15:40:16;22.52;;;15.25;;
71236;SDS011;58984;51.960;5.582;2024-03-07T15:42:43;22.27;;;13.68;;
71236;SDS011;58984;51.960;5.582;2024-03-07T15:45:17;23.13;;;15.13;;
71236;SDS011;58984;51.960;5.582;2024-03-07T15:47:59;23.75;;;14.18;;
71236;SDS011;58984;51.960;5.582;2024-03-07T15:50:35;26.67;;;15.00;;